sensor_id;sensor_type;location;lat;lon;timestamp;P1;durP1;ratioP1;P2;durP2;ratioP2
29352;SDS011;16344;50.364;8.944;2023-01-19T00:01:10;41.80;;;15.73;;
29352;SDS011;16344;50.364;8.944;2023-01-19T00:03:37;45.78;;;14.82;;
29352;SDS011;16344;50.364;8.944;2023-01-19T00:06:13;38.28;;;15.20;;
29352;SDS011;16344;50.364;8.944;2023-01-19T00:08:39;36.35;;;14.88;;
29352;SDS011;16344;50.364;8.944;2023-01-19T00:11:04;51.75;;;16.70;;
29352;SDS011;16344;50.364;8.944;2023-01-19T00:13:31;39.30;;;14.35;;
29352;SDS011;16344;50.364;8.944;2023-01-19T00:15:57;48.08;;;15.20;;
29352;SDS011;16344;50.364;8.944;2023-01-19T00:18:23;47.70;;;15.65;;
29352;SDS011;16344;50.364;8.944;2023-01-19T00:20:50;46.15;;;16.65;;
29352;SDS011;16344;50.364;8.944;2023-01-19T00:23:18;44.60;;;14.98;;
29352;SDS011;16344;50.364;8.944;2023-01-19T00:28:22;48.97;;;14.40;;
29352;SDS011;16344;50.364;8.944;2023-01-19T00:30:48;42.08;;;14.27;;
29352;SDS011;16344;50.364;8.944;2023-01-19T00:33:20;36.78;;;15.00;;
29352;SDS011;16344;50.364;8.944;2023-01-19T00:35:54;49.15;;;15.52;;
29352;SDS011;16344;50.364;8.944;2023-01-19T00:38:21;38.22;;;15.25;;
29352;SDS011;16344;50.364;8.944;2023-01-19T00:40:48;44.58;;;14.73;;
29352;SDS011;16344;50.364;8.944;2023-01-19T00:43:15;39.65;;;15.73;;
29352;SDS011;16344;50.364;8.944;2023-01-19T00:45:46;34.15;;;14.73;;
29352;SDS011;16344;50.364;8.944;2023-01-19T00:48:15;36.97;;;15.25;;
29352;SDS011;16344;50.364;8.944;2023-01-19T00:50:52;40.03;;;16.65;;
29352;SDS011;16344;50.364;8.944;2023-01-19T00:53:18;36.72;;;16.50;;
29352;SDS011;16344;50.364;8.944;2023-01-19T00:55:53;44.67;;;18.20;;
29352;SDS011;16344;50.364;8.944;2023-01-19T00:58:20;44.38;;;15.73;;
29352;SDS011;16344;50.364;8.944;2023-01-19T01:00:46;40.50;;;16.83;;
29352;SDS011;16344;50.364;8.944;2023-01-19T01:03:14;44.65;;;15.52;;
29352;SDS011;16344;50.364;8.944;2023-01-19T01:05:53;43.15;;;15.60;;
29352;SDS011;16344;50.364;8.944;2023-01-19T01:08:23;42.00;;;14.73;;
29352;SDS011;16344;50.364;8.944;2023-01-19T01:10:51;34.42;;;15.95;;
29352;SDS011;16344;50.364;8.944;2023-01-19T01:13:18;39.00;;;14.73;;
29352;SDS011;16344;50.364;8.944;2023-01-19T01:15:47;47.60;;;14.63;;
29352;SDS011;16344;50.364;8.944;2023-01-19T01:18:19;43.75;;;14.88;;
29352;SDS011;16344;50.364;8.944;2023-01-19T01:20:49;38.22;;;15.45;;
29352;SDS011;16344;50.364;8.944;2023-01-19T01:23:15;42.67;;;14.52;;
29352;SDS011;16344;50.364;8.944;2023-01-19T01:25:47;40.03;;;13.68;;
29352;SDS011;16344;50.364;8.944;2023-01-19T01:28:14;36.83;;;15.07;;
29352;SDS011;16344;50.364;8.944;2023-01-19T01:30:51;37.97;;;15.68;;
29352;SDS011;16344;50.364;8.944;2023-01-19T01:33:18;37.35;;;14.88;;
29352;SDS011;16344;50.364;8.944;2023-01-19T01:35:45;28.77;;;13.48;;
29352;SDS011;16344;50.364;8.944;2023-01-19T01:38:16;45.13;;;15.07;;
29352;SDS011;16344;50.364;8.944;2023-01-19T01:40:44;33.72;;;13.80;;
29352;SDS011;16344;50.364;8.944;2023-01-19T01:43:13;35.10;;;14.57;;
29352;SDS011;16344;50.364;8.944;2023-01-19T01:45:44;49.92;;;14.60;;
29352;SDS011;16344;50.364;8.944;2023-01-19T01:48:24;31.15;;;13.60;;
29352;SDS011;16344;50.364;8.944;2023-01-19T01:50:59;40.00;;;13.75;;
29352;SDS011;16344;50.364;8.944;2023-01-19T01:53:47;37.03;;;13.77;;
29352;SDS011;16344;50.364;8.944;2023-01-19T01:56:22;33.35;;;14.02;;
29352;SDS011;16344;50.364;8.944;2023-01-19T01:59:08;40.97;;;14.07;;
29352;SDS011;16344;50.364;8.944;2023-01-19T02:01:55;35.22;;;13.60;;
29352;SDS011;16344;50.364;8.944;2023-01-19T02:04:47;32.78;;;12.65;;
29352;SDS011;16344;50.364;8.944;2023-01-19T02:07:26;29.75;;;12.23;;
29352;SDS011;16344;50.364;8.944;2023-01-19T02:10:18;28.67;;;12.97;;
29352;SDS011;16344;50.364;8.944;2023-01-19T02:13:04;40.40;;;15.77;;
29352;SDS011;16344;50.364;8.944;2023-01-19T02:15:46;34.33;;;14.05;;
29352;SDS011;16344;50.364;8.944;2023-01-19T02:18:14;31.20;;;14.20;;
29352;SDS011;16344;50.364;8.944;2023-01-19T02:20:42;37.35;;;14.20;;
29352;SDS011;16344;50.364;8.944;2023-01-19T02:23:19;39.17;;;15.43;;
29352;SDS011;16344;50.364;8.944;2023-01-19T02:26:21;34.47;;;14.57;;
29352;SDS011;16344;50.364;8.944;2023-01-19T02:28:52;35.00;;;13.35;;
29352;SDS011;16344;50.364;8.944;2023-01-19T02:31:22;30.15;;;12.60;;
29352;SDS011;16344;50.364;8.944;2023-01-19T02:33:49;37.17;;;14.10;;
29352;SDS011;16344;50.364;8.944;2023-01-19T02:36:16;26.42;;;12.52;;
29352;SDS011;16344;50.364;8.944;2023-01-19T02:38:52;33.80;;;13.20;;
29352;SDS011;16344;50.364;8.944;2023-01-19T02:41:27;31.25;;;13.60;;
29352;SDS011;16344;50.364;8.944;2023-01-19T02:44:01;29.17;;;13.20;;
29352;SDS011;16344;50.364;8.944;2023-01-19T02:46:31;34.85;;;15.20;;
29352;SDS011;16344;50.364;8.944;2023-01-19T02:49:10;33.35;;;14.90;;
29352;SDS011;16344;50.364;8.944;2023-01-19T02:51:35;30.48;;;12.85;;
29352;SDS011;16344;50.364;8.944;2023-01-19T03:04:52;45.03;;;15.60;;
29352;SDS011;16344;50.364;8.944;2023-01-19T03:07:38;32.30;;;14.55;;
29352;SDS011;16344;50.364;8.944;2023-01-19T03:10:13;35.63;;;13.77;;
29352;SDS011;16344;50.364;8.944;2023-01-19T03:15:47;48.50;;;14.95;;
29352;SDS011;16344;50.364;8.944;2023-01-19T03:18:18;42.58;;;15.10;;
29352;SDS011;16344;50.364;8.944;2023-01-19T03:20:50;36.72;;;14.27;;
29352;SDS011;16344;50.364;8.944;2023-01-19T03:23:21;38.67;;;15.63;;
29352;SDS011;16344;50.364;8.944;2023-01-19T03:25:54;40.65;;;15.43;;
29352;SDS011;16344;50.364;8.944;2023-01-19T03:28:25;37.92;;;15.30;;
29352;SDS011;16344;50.364;8.944;2023-01-19T03:30:57;38.13;;;15.43;;
29352;SDS011;16344;50.364;8.944;2023-01-19T03:33:28;33.80;;;13.50;;
29352;SDS011;16344;50.364;8.944;2023-01-19T03:36:04;34.58;;;14.52;;
29352;SDS011;16344;50.364;8.944;2023-01-19T03:38:36;44.28;;;15.48;;
29352;SDS011;16344;50.364;8.944;2023-01-19T03:41:09;35.55;;;15.02;;
29352;SDS011;16344;50.364;8.944;2023-01-19T03:43:44;48.17;;;14.10;;
29352;SDS011;16344;50.364;8.944;2023-01-19T03:46:14;42.08;;;15.00;;
29352;SDS011;16344;50.364;8.944;2023-01-19T03:48:44;40.58;;;14.15;;
29352;SDS011;16344;50.364;8.944;2023-01-19T03:51:14;38.25;;;15.82;;
29352;SDS011;16344;50.364;8.944;2023-01-19T03:53:45;31.33;;;13.65;;
29352;SDS011;16344;50.364;8.944;2023-01-19T03:56:19;37.63;;;15.35;;
29352;SDS011;16344;50.364;8.944;2023-01-19T03:58:54;33.85;;;15.68;;
29352;SDS011;16344;50.364;8.944;2023-01-19T04:01:23;43.00;;;16.35;;
29352;SDS011;16344;50.364;8.944;2023-01-19T04:03:51;39.83;;;15.55;;
29352;SDS011;16344;50.364;8.944;2023-01-19T04:06:18;37.65;;;16.15;;
29352;SDS011;16344;50.364;8.944;2023-01-19T04:08:48;44.47;;;15.95;;
29352;SDS011;16344;50.364;8.944;2023-01-19T04:11:17;41.30;;;16.45;;
29352;SDS011;16344;50.364;8.944;2023-01-19T04:13:45;36.58;;;15.50;;
29352;SDS011;16344;50.364;8.944;2023-01-19T04:16:15;39.42;;;16.40;;
29352;SDS011;16344;50.364;8.944;2023-01-19T04:18:44;38.03;;;17.42;;
29352;SDS011;16344;50.364;8.944;2023-01-19T04:21:11;41.65;;;15.88;;
29352;SDS011;16344;50.364;8.944;2023-01-19T04:23:38;39.90;;;15.63;;
29352;SDS011;16344;50.364;8.944;2023-01-19T04:26:09;39.42;;;16.38;;
29352;SDS011;16344;50.364;8.944;2023-01-19T04:28:46;40.38;;;17.73;;
29352;SDS011;16344;50.364;8.944;2023-01-19T04:31:19;43.35;;;15.82;;
29352;SDS011;16344;50.364;8.944;2023-01-19T04:33:46;31.88;;;15.50;;
29352;SDS011;16344;50.364;8.944;2023-01-19T04:36:12;42.92;;;17.20;;
29352;SDS011;16344;50.364;8.944;2023-01-19T04:38:39;39.95;;;17.38;;
29352;SDS011;16344;50.364;8.944;2023-01-19T04:41:07;43.00;;;17.02;;
29352;SDS011;16344;50.364;8.944;2023-01-19T04:43:35;47.03;;;15.95;;
29352;SDS011;16344;50.364;8.944;2023-01-19T04:46:03;37.25;;;16.83;;
29352;SDS011;16344;50.364;8.944;2023-01-19T04:51:01;39.28;;;15.60;;
29352;SDS011;16344;50.364;8.944;2023-01-19T04:53:26;39.53;;;16.60;;
29352;SDS011;16344;50.364;8.944;2023-01-19T04:55:53;46.53;;;18.05;;
29352;SDS011;16344;50.364;8.944;2023-01-19T04:58:25;40.28;;;16.55;;
29352;SDS011;16344;50.364;8.944;2023-01-19T05:00:59;46.60;;;17.02;;
29352;SDS011;16344;50.364;8.944;2023-01-19T05:03:24;47.70;;;17.02;;
29352;SDS011;16344;50.364;8.944;2023-01-19T05:05:50;41.53;;;18.13;;
29352;SDS011;16344;50.364;8.944;2023-01-19T05:08:18;37.30;;;16.67;;
29352;SDS011;16344;50.364;8.944;2023-01-19T05:10:49;49.47;;;17.92;;
29352;SDS011;16344;50.364;8.944;2023-01-19T05:13:16;63.97;;;17.60;;
29352;SDS011;16344;50.364;8.944;2023-01-19T05:15:48;46.55;;;17.58;;
29352;SDS011;16344;50.364;8.944;2023-01-19T05:18:20;44.60;;;17.55;;
29352;SDS011;16344;50.364;8.944;2023-01-19T05:20:46;50.28;;;17.70;;
29352;SDS011;16344;50.364;8.944;2023-01-19T05:23:12;42.58;;;18.27;;
29352;SDS011;16344;50.364;8.944;2023-01-19T05:25:41;42.47;;;17.67;;
29352;SDS011;16344;50.364;8.944;2023-01-19T05:28:06;60.65;;;18.23;;
29352;SDS011;16344;50.364;8.944;2023-01-19T05:30:32;40.38;;;17.52;;
29352;SDS011;16344;50.364;8.944;2023-01-19T05:33:00;44.03;;;18.50;;
29352;SDS011;16344;50.364;8.944;2023-01-19T05:35:31;46.28;;;18.42;;
29352;SDS011;16344;50.364;8.944;2023-01-19T05:37:57;41.97;;;18.60;;
29352;SDS011;16344;50.364;8.944;2023-01-19T05:40:25;47.75;;;18.13;;
29352;SDS011;16344;50.364;8.944;2023-01-19T05:42:50;39.83;;;18.77;;
29352;SDS011;16344;50.364;8.944;2023-01-19T05:45:18;45.42;;;19.45;;
29352;SDS011;16344;50.364;8.944;2023-01-19T05:47:44;35.03;;;18.13;;
29352;SDS011;16344;50.364;8.944;2023-01-19T05:50:10;40.30;;;17.00;;
29352;SDS011;16344;50.364;8.944;2023-01-19T05:52:35;40.10;;;18.38;;
29352;SDS011;16344;50.364;8.944;2023-01-19T05:55:02;46.78;;;17.65;;
29352;SDS011;16344;50.364;8.944;2023-01-19T05:57:27;41.33;;;18.80;;
29352;SDS011;16344;50.364;8.944;2023-01-19T05:59:55;62.28;;;20.55;;
29352;SDS011;16344;50.364;8.944;2023-01-19T06:02:21;44.70;;;19.02;;
29352;SDS011;16344;50.364;8.944;2023-01-19T06:04:59;45.42;;;18.00;;
29352;SDS011;16344;50.364;8.944;2023-01-19T06:07:25;57.97;;;19.70;;
29352;SDS011;16344;50.364;8.944;2023-01-19T06:09:51;50.40;;;20.45;;
29352;SDS011;16344;50.364;8.944;2023-01-19T06:12:17;44.58;;;20.17;;
29352;SDS011;16344;50.364;8.944;2023-01-19T06:14:42;45.60;;;19.08;;
29352;SDS011;16344;50.364;8.944;2023-01-19T06:17:08;50.35;;;18.77;;
29352;SDS011;16344;50.364;8.944;2023-01-19T06:19:34;49.40;;;19.52;;
29352;SDS011;16344;50.364;8.944;2023-01-19T06:22:00;49.42;;;18.65;;
29352;SDS011;16344;50.364;8.944;2023-01-19T06:24:26;48.05;;;18.65;;
29352;SDS011;16344;50.364;8.944;2023-01-19T06:26:51;44.97;;;19.42;;
29352;SDS011;16344;50.364;8.944;2023-01-19T06:29:17;45.58;;;19.27;;
29352;SDS011;16344;50.364;8.944;2023-01-19T06:31:43;46.55;;;20.17;;
29352;SDS011;16344;50.364;8.944;2023-01-19T06:34:08;50.53;;;21.90;;
29352;SDS011;16344;50.364;8.944;2023-01-19T06:36:34;44.97;;;20.73;;
29352;SDS011;16344;50.364;8.944;2023-01-19T06:39:00;52.40;;;21.50;;
29352;SDS011;16344;50.364;8.944;2023-01-19T06:41:30;49.22;;;21.50;;
29352;SDS011;16344;50.364;8.944;2023-01-19T06:44:00;45.20;;;22.02;;
29352;SDS011;16344;50.364;8.944;2023-01-19T06:46:26;48.97;;;20.85;;
29352;SDS011;16344;50.364;8.944;2023-01-19T06:48:52;46.38;;;19.88;;
29352;SDS011;16344;50.364;8.944;2023-01-19T06:51:19;48.15;;;23.13;;
29352;SDS011;16344;50.364;8.944;2023-01-19T06:53:45;54.33;;;20.77;;
29352;SDS011;16344;50.364;8.944;2023-01-19T06:56:11;56.38;;;22.65;;
29352;SDS011;16344;50.364;8.944;2023-01-19T06:58:40;48.55;;;21.73;;
29352;SDS011;16344;50.364;8.944;2023-01-19T07:01:06;52.20;;;23.13;;
29352;SDS011;16344;50.364;8.944;2023-01-19T07:03:33;55.72;;;21.67;;
29352;SDS011;16344;50.364;8.944;2023-01-19T07:05:59;49.03;;;23.23;;
29352;SDS011;16344;50.364;8.944;2023-01-19T07:08:31;43.85;;;21.25;;
29352;SDS011;16344;50.364;8.944;2023-01-19T07:11:04;56.03;;;21.90;;
29352;SDS011;16344;50.364;8.944;2023-01-19T07:13:31;56.88;;;27.08;;
29352;SDS011;16344;50.364;8.944;2023-01-19T07:15:58;54.90;;;23.20;;
29352;SDS011;16344;50.364;8.944;2023-01-19T07:18:29;43.88;;;21.83;;
29352;SDS011;16344;50.364;8.944;2023-01-19T07:20:55;53.97;;;24.08;;
29352;SDS011;16344;50.364;8.944;2023-01-19T07:23:21;45.50;;;21.38;;
29352;SDS011;16344;50.364;8.944;2023-01-19T07:25:47;48.08;;;23.30;;
29352;SDS011;16344;50.364;8.944;2023-01-19T07:28:12;54.17;;;23.05;;
29352;SDS011;16344;50.364;8.944;2023-01-19T07:30:40;52.85;;;23.77;;
29352;SDS011;16344;50.364;8.944;2023-01-19T07:33:10;46.10;;;21.50;;
29352;SDS011;16344;50.364;8.944;2023-01-19T07:35:36;56.05;;;22.23;;
29352;SDS011;16344;50.364;8.944;2023-01-19T07:38:01;49.75;;;23.85;;
29352;SDS011;16344;50.364;8.944;2023-01-19T07:40:27;49.80;;;21.13;;
29352;SDS011;16344;50.364;8.944;2023-01-19T07:42:53;48.38;;;20.85;;
29352;SDS011;16344;50.364;8.944;2023-01-19T07:45:19;52.60;;;22.27;;
29352;SDS011;16344;50.364;8.944;2023-01-19T07:47:45;46.50;;;19.70;;
29352;SDS011;16344;50.364;8.944;2023-01-19T07:50:13;51.25;;;21.02;;
29352;SDS011;16344;50.364;8.944;2023-01-19T07:52:41;50.65;;;20.38;;
29352;SDS011;16344;50.364;8.944;2023-01-19T07:55:07;50.97;;;20.25;;
29352;SDS011;16344;50.364;8.944;2023-01-19T07:57:33;45.08;;;21.38;;
29352;SDS011;16344;50.364;8.944;2023-01-19T07:59:59;45.42;;;20.35;;
29352;SDS011;16344;50.364;8.944;2023-01-19T08:02:25;46.95;;;19.73;;
29352;SDS011;16344;50.364;8.944;2023-01-19T08:04:50;43.60;;;20.27;;
29352;SDS011;16344;50.364;8.944;2023-01-19T08:07:16;39.05;;;17.63;;
29352;SDS011;16344;50.364;8.944;2023-01-19T08:09:42;46.75;;;19.23;;
29352;SDS011;16344;50.364;8.944;2023-01-19T08:12:08;37.53;;;17.63;;
29352;SDS011;16344;50.364;8.944;2023-01-19T08:14:33;39.65;;;17.85;;
29352;SDS011;16344;50.364;8.944;2023-01-19T08:16:59;40.15;;;18.95;;
29352;SDS011;16344;50.364;8.944;2023-01-19T08:19:26;40.00;;;17.80;;
29352;SDS011;16344;50.364;8.944;2023-01-19T08:21:52;37.75;;;17.58;;
29352;SDS011;16344;50.364;8.944;2023-01-19T08:24:18;43.47;;;17.50;;
29352;SDS011;16344;50.364;8.944;2023-01-19T08:26:46;37.58;;;18.00;;
29352;SDS011;16344;50.364;8.944;2023-01-19T08:29:14;37.35;;;18.20;;
29352;SDS011;16344;50.364;8.944;2023-01-19T08:31:40;33.20;;;15.88;;
29352;SDS011;16344;50.364;8.944;2023-01-19T08:34:06;36.80;;;17.10;;
29352;SDS011;16344;50.364;8.944;2023-01-19T08:36:32;40.00;;;17.02;;
29352;SDS011;16344;50.364;8.944;2023-01-19T08:38:58;32.40;;;16.15;;
29352;SDS011;16344;50.364;8.944;2023-01-19T08:41:23;38.28;;;17.25;;
29352;SDS011;16344;50.364;8.944;2023-01-19T08:43:49;36.75;;;16.80;;
29352;SDS011;16344;50.364;8.944;2023-01-19T08:46:14;35.88;;;16.30;;
29352;SDS011;16344;50.364;8.944;2023-01-19T08:48:41;36.47;;;15.82;;
29352;SDS011;16344;50.364;8.944;2023-01-19T08:51:07;44.90;;;18.02;;
29352;SDS011;16344;50.364;8.944;2023-01-19T08:53:33;39.17;;;18.05;;
29352;SDS011;16344;50.364;8.944;2023-01-19T08:55:58;42.67;;;16.55;;
29352;SDS011;16344;50.364;8.944;2023-01-19T08:58:25;35.53;;;16.58;;
29352;SDS011;16344;50.364;8.944;2023-01-19T09:00:51;45.97;;;18.65;;
29352;SDS011;16344;50.364;8.944;2023-01-19T09:03:17;39.75;;;18.92;;
29352;SDS011;16344;50.364;8.944;2023-01-19T09:05:43;38.75;;;19.30;;
29352;SDS011;16344;50.364;8.944;2023-01-19T09:08:10;44.33;;;18.77;;
29352;SDS011;16344;50.364;8.944;2023-01-19T09:10:38;37.03;;;18.48;;
29352;SDS011;16344;50.364;8.944;2023-01-19T09:13:09;44.63;;;18.25;;
29352;SDS011;16344;50.364;8.944;2023-01-19T09:15:36;39.28;;;19.10;;
29352;SDS011;16344;50.364;8.944;2023-01-19T09:18:03;41.17;;;19.25;;
29352;SDS011;16344;50.364;8.944;2023-01-19T09:20:31;39.97;;;19.98;;
29352;SDS011;16344;50.364;8.944;2023-01-19T09:22:58;35.67;;;18.95;;
29352;SDS011;16344;50.364;8.944;2023-01-19T09:25:24;40.47;;;19.08;;
29352;SDS011;16344;50.364;8.944;2023-01-19T09:27:51;40.45;;;18.65;;
29352;SDS011;16344;50.364;8.944;2023-01-19T09:30:17;41.55;;;19.05;;
29352;SDS011;16344;50.364;8.944;2023-01-19T09:32:43;40.78;;;19.25;;
29352;SDS011;16344;50.364;8.944;2023-01-19T09:35:09;42.08;;;17.58;;
29352;SDS011;16344;50.364;8.944;2023-01-19T09:37:35;35.92;;;17.48;;
29352;SDS011;16344;50.364;8.944;2023-01-19T09:40:00;38.95;;;17.58;;
29352;SDS011;16344;50.364;8.944;2023-01-19T09:42:35;40.40;;;17.75;;
29352;SDS011;16344;50.364;8.944;2023-01-19T09:45:42;36.35;;;17.08;;
29352;SDS011;16344;50.364;8.944;2023-01-19T09:48:03;31.45;;;15.25;;
29352;SDS011;16344;50.364;8.944;2023-01-19T09:50:33;34.88;;;15.52;;
29352;SDS011;16344;50.364;8.944;2023-01-19T09:53:04;44.05;;;16.25;;
29352;SDS011;16344;50.364;8.944;2023-01-19T09:55:40;33.13;;;14.50;;
29352;SDS011;16344;50.364;8.944;2023-01-19T09:58:13;32.30;;;15.75;;
29352;SDS011;16344;50.364;8.944;2023-01-19T10:00:42;33.15;;;15.75;;
29352;SDS011;16344;50.364;8.944;2023-01-19T10:03:15;37.70;;;16.52;;
29352;SDS011;16344;50.364;8.944;2023-01-19T10:05:42;35.90;;;15.02;;
29352;SDS011;16344;50.364;8.944;2023-01-19T10:08:45;37.08;;;14.60;;
29352;SDS011;16344;50.364;8.944;2023-01-19T10:14:24;38.50;;;14.95;;
29352;SDS011;16344;50.364;8.944;2023-01-19T10:17:16;27.13;;;13.85;;
29352;SDS011;16344;50.364;8.944;2023-01-19T10:19:59;35.22;;;14.93;;
29352;SDS011;16344;50.364;8.944;2023-01-19T10:22:27;34.08;;;15.07;;
29352;SDS011;16344;50.364;8.944;2023-01-19T10:24:57;32.10;;;14.23;;
29352;SDS011;16344;50.364;8.944;2023-01-19T10:29:53;36.63;;;15.68;;
29352;SDS011;16344;50.364;8.944;2023-01-19T10:32:24;35.65;;;15.20;;
29352;SDS011;16344;50.364;8.944;2023-01-19T10:34:54;33.55;;;15.73;;
29352;SDS011;16344;50.364;8.944;2023-01-19T10:39:56;34.42;;;16.23;;
29352;SDS011;16344;50.364;8.944;2023-01-19T10:42:35;45.30;;;17.70;;
29352;SDS011;16344;50.364;8.944;2023-01-19T10:45:03;36.75;;;16.55;;
29352;SDS011;16344;50.364;8.944;2023-01-19T10:47:42;41.55;;;17.20;;
29352;SDS011;16344;50.364;8.944;2023-01-19T10:52:59;31.90;;;15.70;;
29352;SDS011;16344;50.364;8.944;2023-01-19T10:55:31;35.28;;;16.40;;
29352;SDS011;16344;50.364;8.944;2023-01-19T10:58:05;35.80;;;17.60;;
29352;SDS011;16344;50.364;8.944;2023-01-19T11:00:49;44.75;;;17.23;;
29352;SDS011;16344;50.364;8.944;2023-01-19T11:03:22;44.22;;;17.33;;
29352;SDS011;16344;50.364;8.944;2023-01-19T11:05:57;36.58;;;17.58;;
29352;SDS011;16344;50.364;8.944;2023-01-19T11:08:43;40.67;;;18.30;;
29352;SDS011;16344;50.364;8.944;2023-01-19T11:11:10;37.65;;;18.63;;
29352;SDS011;16344;50.364;8.944;2023-01-19T11:13:36;38.13;;;19.75;;
29352;SDS011;16344;50.364;8.944;2023-01-19T11:16:18;40.15;;;18.88;;
29352;SDS011;16344;50.364;8.944;2023-01-19T11:18:53;43.88;;;17.92;;
29352;SDS011;16344;50.364;8.944;2023-01-19T11:21:21;42.97;;;19.48;;
29352;SDS011;16344;50.364;8.944;2023-01-19T11:23:50;42.50;;;17.58;;
29352;SDS011;16344;50.364;8.944;2023-01-19T11:28:51;38.90;;;19.45;;
29352;SDS011;16344;50.364;8.944;2023-01-19T11:33:59;44.20;;;18.42;;
29352;SDS011;16344;50.364;8.944;2023-01-19T11:36:34;50.75;;;20.23;;
29352;SDS011;16344;50.364;8.944;2023-01-19T11:39:09;38.45;;;18.83;;
29352;SDS011;16344;50.364;8.944;2023-01-19T11:41:56;40.95;;;19.85;;
29352;SDS011;16344;50.364;8.944;2023-01-19T11:44:28;43.13;;;19.02;;
29352;SDS011;16344;50.364;8.944;2023-01-19T11:47:00;45.50;;;20.17;;
29352;SDS011;16344;50.364;8.944;2023-01-19T11:54:53;44.55;;;21.52;;
29352;SDS011;16344;50.364;8.944;2023-01-19T11:57:27;59.10;;;24.52;;
29352;SDS011;16344;50.364;8.944;2023-01-19T11:59:52;37.25;;;18.33;;
29352;SDS011;16344;50.364;8.944;2023-01-19T12:02:23;36.65;;;18.05;;
29352;SDS011;16344;50.364;8.944;2023-01-19T12:04:53;45.38;;;17.92;;
29352;SDS011;16344;50.364;8.944;2023-01-19T12:07:23;45.58;;;17.05;;
29352;SDS011;16344;50.364;8.944;2023-01-19T12:09:55;27.58;;;14.35;;
29352;SDS011;16344;50.364;8.944;2023-01-19T12:12:31;24.35;;;13.70;;
29352;SDS011;16344;50.364;8.944;2023-01-19T12:17:50;23.40;;;12.95;;
29352;SDS011;16344;50.364;8.944;2023-01-19T12:20:32;33.95;;;13.27;;
29352;SDS011;16344;50.364;8.944;2023-01-19T12:23:06;28.98;;;13.88;;
29352;SDS011;16344;50.364;8.944;2023-01-19T12:28:39;26.02;;;13.07;;
29352;SDS011;16344;50.364;8.944;2023-01-19T12:31:12;26.70;;;13.80;;
29352;SDS011;16344;50.364;8.944;2023-01-19T12:33:41;27.25;;;12.63;;
29352;SDS011;16344;50.364;8.944;2023-01-19T12:36:11;25.67;;;13.38;;
29352;SDS011;16344;50.364;8.944;2023-01-19T12:41:44;32.45;;;13.45;;
29352;SDS011;16344;50.364;8.944;2023-01-19T12:46:56;26.02;;;12.18;;
29352;SDS011;16344;50.364;8.944;2023-01-19T12:49:28;38.97;;;13.02;;
29352;SDS011;16344;50.364;8.944;2023-01-19T12:52:24;29.02;;;13.77;;
29352;SDS011;16344;50.364;8.944;2023-01-19T12:55:02;23.15;;;12.57;;
29352;SDS011;16344;50.364;8.944;2023-01-19T13:03:04;30.35;;;15.95;;
29352;SDS011;16344;50.364;8.944;2023-01-19T13:06:04;32.70;;;14.90;;
29352;SDS011;16344;50.364;8.944;2023-01-19T13:11:22;38.55;;;15.85;;
29352;SDS011;16344;50.364;8.944;2023-01-19T13:24:09;53.17;;;22.83;;
29352;SDS011;16344;50.364;8.944;2023-01-19T13:26:39;36.90;;;17.85;;
29352;SDS011;16344;50.364;8.944;2023-01-19T13:29:07;35.08;;;14.63;;
29352;SDS011;16344;50.364;8.944;2023-01-19T13:31:38;36.30;;;14.85;;
29352;SDS011;16344;50.364;8.944;2023-01-19T13:34:12;38.80;;;17.50;;
29352;SDS011;16344;50.364;8.944;2023-01-19T13:36:45;27.40;;;15.52;;
29352;SDS011;16344;50.364;8.944;2023-01-19T13:41:45;36.75;;;15.60;;
29352;SDS011;16344;50.364;8.944;2023-01-19T13:44:17;31.52;;;15.63;;
29352;SDS011;16344;50.364;8.944;2023-01-19T13:46:52;39.30;;;17.40;;
29352;SDS011;16344;50.364;8.944;2023-01-19T13:49:20;32.45;;;17.40;;
29352;SDS011;16344;50.364;8.944;2023-01-19T13:54:51;30.95;;;16.92;;
29352;SDS011;16344;50.364;8.944;2023-01-19T13:57:25;32.80;;;15.98;;
29352;SDS011;16344;50.364;8.944;2023-01-19T14:05:38;32.22;;;15.93;;
29352;SDS011;16344;50.364;8.944;2023-01-19T14:13:32;39.05;;;19.15;;
29352;SDS011;16344;50.364;8.944;2023-01-19T14:16:05;34.90;;;17.38;;
29352;SDS011;16344;50.364;8.944;2023-01-19T14:18:36;33.22;;;17.25;;
29352;SDS011;16344;50.364;8.944;2023-01-19T14:21:05;37.42;;;17.10;;
29352;SDS011;16344;50.364;8.944;2023-01-19T14:23:40;37.13;;;17.40;;
29352;SDS011;16344;50.364;8.944;2023-01-19T14:29:25;32.50;;;15.88;;
29352;SDS011;16344;50.364;8.944;2023-01-19T14:32:02;33.80;;;16.90;;
29352;SDS011;16344;50.364;8.944;2023-01-19T14:37:16;39.40;;;18.70;;
29352;SDS011;16344;50.364;8.944;2023-01-19T14:39:48;49.03;;;21.73;;
29352;SDS011;16344;50.364;8.944;2023-01-19T14:42:25;34.60;;;18.10;;
29352;SDS011;16344;50.364;8.944;2023-01-19T14:44:53;38.55;;;18.70;;
29352;SDS011;16344;50.364;8.944;2023-01-19T14:47:24;33.03;;;17.45;;
29352;SDS011;16344;50.364;8.944;2023-01-19T14:50:04;35.13;;;17.70;;
29352;SDS011;16344;50.364;8.944;2023-01-19T14:53:01;36.40;;;18.27;;
29352;SDS011;16344;50.364;8.944;2023-01-19T14:55:52;35.38;;;17.02;;
29352;SDS011;16344;50.364;8.944;2023-01-19T14:58:22;38.75;;;19.55;;
29352;SDS011;16344;50.364;8.944;2023-01-19T15:00:49;44.30;;;19.85;;
29352;SDS011;16344;50.364;8.944;2023-01-19T15:03:19;42.03;;;21.48;;
29352;SDS011;16344;50.364;8.944;2023-01-19T15:05:45;47.10;;;23.25;;
29352;SDS011;16344;50.364;8.944;2023-01-19T15:08:30;48.58;;;22.08;;
29352;SDS011;16344;50.364;8.944;2023-01-19T15:10:57;46.65;;;22.40;;
29352;SDS011;16344;50.364;8.944;2023-01-19T15:13:30;46.85;;;21.23;;
29352;SDS011;16344;50.364;8.944;2023-01-19T15:15:56;46.50;;;22.85;;
29352;SDS011;16344;50.364;8.944;2023-01-19T15:18:23;53.35;;;23.33;;
29352;SDS011;16344;50.364;8.944;2023-01-19T15:20:51;53.22;;;22.90;;
29352;SDS011;16344;50.364;8.944;2023-01-19T15:23:19;53.35;;;23.05;;
29352;SDS011;16344;50.364;8.944;2023-01-19T15:25:45;48.95;;;24.13;;
29352;SDS011;16344;50.364;8.944;2023-01-19T15:28:12;50.90;;;24.52;;
29352;SDS011;16344;50.364;8.944;2023-01-19T15:30:39;38.78;;;21.85;;
29352;SDS011;16344;50.364;8.944;2023-01-19T15:33:05;56.15;;;21.20;;
29352;SDS011;16344;50.364;8.944;2023-01-19T15:35:30;47.28;;;21.52;;
29352;SDS011;16344;50.364;8.944;2023-01-19T15:37:56;44.17;;;20.70;;
29352;SDS011;16344;50.364;8.944;2023-01-19T15:40:22;43.58;;;22.00;;
29352;SDS011;16344;50.364;8.944;2023-01-19T15:42:47;43.70;;;22.70;;
29352;SDS011;16344;50.364;8.944;2023-01-19T15:47:48;52.10;;;22.67;;
29352;SDS011;16344;50.364;8.944;2023-01-19T15:50:13;46.45;;;23.77;;
29352;SDS011;16344;50.364;8.944;2023-01-19T15:52:39;56.97;;;23.50;;
29352;SDS011;16344;50.364;8.944;2023-01-19T15:55:07;59.20;;;24.88;;
29352;SDS011;16344;50.364;8.944;2023-01-19T15:57:34;54.47;;;23.05;;
29352;SDS011;16344;50.364;8.944;2023-01-19T16:00:00;51.80;;;24.65;;
29352;SDS011;16344;50.364;8.944;2023-01-19T16:02:26;44.65;;;23.75;;
29352;SDS011;16344;50.364;8.944;2023-01-19T16:04:52;49.28;;;23.20;;
29352;SDS011;16344;50.364;8.944;2023-01-19T16:07:17;42.10;;;22.17;;
29352;SDS011;16344;50.364;8.944;2023-01-19T16:09:43;47.55;;;22.73;;
29352;SDS011;16344;50.364;8.944;2023-01-19T16:12:08;49.28;;;24.25;;
29352;SDS011;16344;50.364;8.944;2023-01-19T16:14:34;55.88;;;22.40;;